createdAt,value
2019-06-20T00:43:20.715Z,14.1
2019-06-20T00:45:00.872Z,14.1
2019-06-20T00:46:40.978Z,14.1
2019-06-20T00:47:30.747Z,14.1
2019-06-20T00:49:11.177Z,14.1
2019-06-20T00:50:00.941Z,14
2019-06-20T00:50:51.312Z,14
2019-06-20T00:51:41.323Z,14
2019-06-20T00:52:31.417Z,14
2019-06-20T00:53:21.456Z,14
2019-06-20T00:54:11.504Z,14
2019-06-20T00:55:01.029Z,14
2019-06-20T00:55:51.434Z,14
2019-06-20T00:56:41.702Z,14
2019-06-20T00:57:31.768Z,14
2019-06-20T00:58:21.819Z,14
2019-06-20T00:59:11.578Z,14
2019-06-20T01:00:01.954Z,14
2019-06-20T01:00:52.015Z,14
2019-06-20T01:01:42.152Z,14.1
2019-06-20T01:02:32.103Z,14.1
2019-06-20T01:03:21.881Z,14.1
2019-06-20T01:04:11.943Z,14.1
2019-06-20T01:05:02.367Z,14.1
2019-06-20T01:05:52.072Z,14.2
2019-06-20T01:06:42.416Z,14.2
2019-06-20T01:07:32.493Z,14.2
2019-06-20T01:08:21.968Z,14.2
2019-06-20T01:09:12.576Z,14.3
2019-06-20T01:10:02.011Z,14.3
2019-06-20T01:10:52.413Z,14.3
2019-06-20T01:11:42.738Z,14.3
2019-06-20T01:12:32.536Z,14.3
2019-06-20T01:13:36.060Z,14.3
2019-06-20T01:15:02.478Z,14.3
2019-06-20T01:15:52.773Z,14.4
2019-06-20T01:16:43.174Z,14.4
2019-06-20T01:17:33.202Z,14.4
2019-06-20T01:18:23.233Z,14.4
2019-06-20T01:19:13.283Z,14.4
2019-06-20T01:20:03.932Z,14.4
2019-06-20T01:20:53.142Z,14.4
2019-06-20T01:21:42.652Z,14.4
2019-06-20T01:22:33.525Z,14.4
2019-06-20T01:23:23.312Z,14.5
2019-06-20T01:24:13.372Z,14.5
2019-06-20T01:25:03.335Z,14.5
2019-06-20T01:25:53.558Z,14.5
2019-06-20T01:26:43.550Z,14.5
2019-06-20T01:27:33.932Z,14.5
2019-06-20T01:28:23.662Z,14.5
2019-06-20T01:29:14.072Z,14.5
2019-06-20T01:30:03.651Z,14.4
2019-06-20T01:30:54.134Z,14.5
2019-06-20T01:31:44.200Z,14.5
2019-06-20T01:32:33.960Z,14.5
2019-06-20T01:33:24.029Z,14.5
2019-06-20T01:34:14.364Z,14.5
2019-06-20T01:35:04.141Z,14.5
2019-06-20T01:35:54.492Z,14.5
2019-06-20T01:36:44.559Z,14.5
2019-06-20T01:37:34.347Z,14.6
2019-06-20T01:38:24.654Z,14.6
2019-06-20T01:39:14.178Z,14.5
2019-06-20T01:40:04.520Z,14.6
2019-06-20T01:40:54.295Z,14.6
2019-06-20T01:41:44.909Z,14.6
2019-06-20T01:42:34.691Z,14.6
2019-06-20T01:43:24.740Z,14.6
2019-06-20T01:44:15.059Z,14.6
2019-06-20T01:45:04.926Z,14.6
2019-06-20T01:45:55.191Z,14.6
2019-06-20T01:46:45.264Z,14.6
2019-06-20T01:47:35.343Z,14.6
2019-06-20T01:48:25.369Z,14.6
2019-06-20T01:50:05.495Z,14.6
2019-06-20T01:51:45.338Z,14.6
2019-06-20T01:52:34.919Z,14.6
2019-06-20T01:53:25.812Z,14.7
2019-06-20T01:55:05.320Z,14.7
2019-06-20T01:55:55.700Z,14.7
2019-06-20T01:56:45.961Z,14.7
2019-06-20T02:44:32.687Z,14.9
2019-06-20T03:02:40.674Z,14.9
2019-06-20T03:06:02.107Z,14.9
2019-06-20T03:06:51.877Z,14.9
2019-06-20T03:07:42.491Z,14.9
2019-06-20T03:08:31.717Z,15
2019-06-20T03:09:22.611Z,15
2019-06-20T03:10:12.432Z,15
2019-06-20T03:11:02.172Z,15
2019-06-20T03:11:52.676Z,15.1
2019-06-20T03:12:42.379Z,15.1
2019-06-20T03:13:32.912Z,15.1
2019-06-20T03:14:22.978Z,15.1
2019-06-20T03:15:13.051Z,15.1
2019-06-20T03:16:03.096Z,15.1
2019-06-20T03:16:52.882Z,15.1
2019-06-20T03:17:43.245Z,15.1
2019-06-20T03:18:33.253Z,15.1
2019-06-20T03:19:23.322Z,15.1
2019-06-20T03:20:12.830Z,15.1
2019-06-20T03:21:03.161Z,15.1
2019-06-20T03:21:53.545Z,15.1
2019-06-20T03:22:43.418Z,15.1
2019-06-20T03:23:33.349Z,15.1
2019-06-20T03:24:23.670Z,15.1
2019-06-20T03:25:13.465Z,15.2
2019-06-20T03:26:03.814Z,15.2
2019-06-20T03:26:53.293Z,15.2
2019-06-20T03:27:43.664Z,15.2
2019-06-20T03:28:33.542Z,15.2
2019-06-20T03:29:24.015Z,15.2
2019-06-20T03:30:14.149Z,15.3
2019-06-20T03:31:04.298Z,15.3
2019-06-20T03:31:54.273Z,15.3
2019-06-20T03:32:44.299Z,15.3
2019-06-20T03:33:34.368Z,15.3
2019-06-20T03:34:24.408Z,15.3
2019-06-20T03:35:14.160Z,15.3
2019-06-20T03:36:04.251Z,15.3
2019-06-20T03:36:54.297Z,15.3
2019-06-20T03:37:44.635Z,15.3
2019-06-20T03:38:34.435Z,15.3
2019-06-20T03:39:24.197Z,15.3
2019-06-20T03:40:14.827Z,15.4
2019-06-20T03:41:04.871Z,15.4
2019-06-20T03:41:54.930Z,15.4
2019-06-20T03:42:45.012Z,15.4
2019-06-20T03:43:35.028Z,15.4
2019-06-20T03:44:24.837Z,15.4
2019-06-20T03:45:14.877Z,15.4
2019-06-20T03:46:04.939Z,15.4
2019-06-20T03:46:54.998Z,15.4
2019-06-20T03:47:44.537Z,15.4
2019-06-20T03:48:35.122Z,15.5
2019-06-20T03:50:15.259Z,15.6
2019-06-20T04:15:21.608Z,17.1
2019-06-20T04:41:08.417Z,19.4
2019-06-20T04:45:36.790Z,19.9
2019-06-20T04:59:30.460Z,21.5
2019-06-20T05:00:20.565Z,21.6
2019-06-20T05:01:10.570Z,21.7
2019-06-20T05:02:49.983Z,21.9
2019-06-20T05:03:40.752Z,21.9
2019-06-20T05:04:30.820Z,22.1
2019-06-20T05:05:20.580Z,22.1
2019-06-20T05:06:10.669Z,22.3
2019-06-20T05:07:00.994Z,22.4
2019-06-20T05:07:50.838Z,22.4
2019-06-20T05:08:41.097Z,22.6
2019-06-20T05:09:30.919Z,22.7
2019-06-20T05:10:21.209Z,22.8
2019-06-20T05:11:11.287Z,22.9
2019-06-20T05:12:01.504Z,23.1
2019-06-20T05:12:51.115Z,23.2
2019-06-20T05:13:40.904Z,23.3
2019-06-20T05:14:30.684Z,23.4
2019-06-20T05:15:21.649Z,23.6
2019-06-20T05:16:11.338Z,23.8
2019-06-20T05:17:01.780Z,23.9
2019-06-20T05:17:52.031Z,24.1
2019-06-20T05:18:41.599Z,23.8
2019-06-20T05:19:31.866Z,23.5
2019-06-20T05:20:21.938Z,23.6
2019-06-20T05:21:11.958Z,23.9
2019-06-20T05:22:01.775Z,24.3
2019-06-20T05:22:52.106Z,24.6
2019-06-20T05:23:42.183Z,24.9
2019-06-20T05:24:31.956Z,25.2
2019-06-20T05:25:22.272Z,25.5
2019-06-20T05:26:12.049Z,25.7
2019-06-20T05:27:02.190Z,25.9
2019-06-20T05:27:52.461Z,26.1
2019-06-20T05:28:42.595Z,26.4
2019-06-20T05:29:32.555Z,26.6
2019-06-20T05:30:22.631Z,26.8
2019-06-20T05:31:12.503Z,27.1
2019-06-20T05:32:02.528Z,27.3
2019-06-20T05:32:53.025Z,27.6
2019-06-20T05:34:32.975Z,28.1
2019-06-20T05:35:23.013Z,28.3
2019-06-20T05:36:12.030Z,28.5
2019-06-20T05:37:03.220Z,28.7
2019-06-20T05:37:52.884Z,28.9
2019-06-20T05:38:42.941Z,29.1
2019-06-20T05:39:33.045Z,29.3
2019-06-20T05:40:23.063Z,29.6
2019-06-20T05:41:13.107Z,29.8
2019-06-20T05:42:03.486Z,30
2019-06-20T05:42:53.635Z,30.1
2019-06-20T05:43:43.648Z,30.3
2019-06-20T05:44:33.697Z,30.4
2019-06-20T05:45:23.719Z,30.5
2019-06-20T05:46:13.760Z,30.6
2019-06-20T05:47:15.418Z,30.7
2019-06-20T05:48:44.583Z,30.8
2019-06-20T05:49:33.994Z,30.9
2019-06-20T05:50:23.493Z,31
2019-06-20T05:51:14.264Z,31.1
2019-06-20T05:52:03.903Z,31.2
2019-06-20T05:52:54.886Z,31.3
2019-06-20T05:53:44.338Z,31.4
2019-06-20T05:54:33.795Z,31.6
2019-06-20T05:55:24.115Z,31.7
2019-06-20T05:56:14.189Z,31.8
2019-06-20T05:57:06.450Z,31.9
2019-06-20T05:58:44.675Z,32
2019-06-20T05:59:34.711Z,32.1
2019-06-20T06:00:24.511Z,32.1
2019-06-20T06:01:14.815Z,32.2
2019-06-20T06:02:05.641Z,32.3
2019-06-20T06:04:02.327Z,32.4
2019-06-20T06:04:52.369Z,32.6
2019-06-20T06:05:42.425Z,32.6
2019-06-20T06:06:32.476Z,32.8
2019-06-20T06:07:23.529Z,32.9
2019-06-20T06:08:12.352Z,33
2019-06-20T06:09:02.599Z,33.1
2019-06-20T06:09:52.437Z,33.2
2019-06-20T06:10:43.391Z,33.3
2019-06-20T06:11:32.577Z,33.4
2019-06-20T06:12:22.627Z,33.5
2019-06-20T06:13:12.979Z,33.6
2019-06-20T06:14:02.742Z,33.7
2019-06-20T06:14:53.131Z,33.8
2019-06-20T06:15:43.934Z,33.9
2019-06-20T06:16:33.171Z,34
2019-06-20T06:17:23.237Z,34.1
2019-06-20T06:18:14.118Z,34.1
2019-06-20T06:19:03.359Z,34.3
2019-06-20T06:19:53.004Z,34.3
2019-06-20T06:20:46.872Z,34.4
2019-06-20T06:22:23.333Z,34.6
2019-06-20T06:23:13.401Z,34.8
2019-06-20T06:24:03.731Z,34.9
2019-06-20T06:24:53.854Z,35.2
2019-06-20T06:25:43.867Z,35.4
2019-06-20T06:26:33.669Z,35.8
2019-06-20T06:27:23.984Z,36.2
2019-06-20T06:28:14.207Z,36.6
2019-06-20T06:29:03.802Z,37
2019-06-20T06:29:53.875Z,37.4
2019-06-20T06:30:44.355Z,37.9
2019-06-20T06:31:33.991Z,38.6
2019-06-20T06:32:41.732Z,39.2
2019-06-20T06:34:04.212Z,40.6
2019-06-20T06:34:54.493Z,41.3
2019-06-20T06:35:44.091Z,41.9
2019-06-20T06:36:34.663Z,42.6
2019-06-20T06:37:24.458Z,43.6
2019-06-20T06:38:14.240Z,44.9
2019-06-20T06:39:04.865Z,45.9
2019-06-20T06:40:44.922Z,47.8
2019-06-20T06:41:34.470Z,48.4
2019-06-20T06:42:24.489Z,49.1
2019-06-20T06:43:15.155Z,49.8
2019-06-20T06:45:45.069Z,51.6
2019-06-20T06:47:00.557Z,52.2
2019-06-20T06:48:14.936Z,53.4
2019-06-20T06:49:05.331Z,54
2019-06-20T06:54:55.672Z,57.5
2019-06-20T07:04:02.297Z,61.3
2019-06-20T07:04:52.062Z,61.8
2019-06-20T07:05:42.417Z,62.1
2019-06-20T07:06:31.912Z,62.5
2019-06-20T07:07:22.246Z,62.9
2019-06-20T07:08:12.291Z,63.3
2019-06-20T07:09:02.731Z,63.6
2019-06-20T07:09:52.436Z,64
2019-06-20T07:10:42.797Z,64.3
2019-06-20T07:11:32.279Z,64.7
2019-06-20T07:12:22.884Z,64.9
2019-06-20T07:13:12.938Z,65.3
2019-06-20T07:14:03.283Z,65.6
2019-06-20T07:14:53.051Z,65.8
2019-06-20T07:15:43.129Z,66.1
2019-06-20T07:16:32.920Z,66.3
2019-06-20T07:17:22.710Z,66.5
2019-06-20T07:18:13.305Z,66.8
2019-06-20T07:19:03.374Z,67
2019-06-20T07:19:53.260Z,67.3
2019-06-20T07:20:43.503Z,67.5
2019-06-20T07:21:33.581Z,67.7
2019-06-20T07:22:23.605Z,68
2019-06-20T07:23:13.411Z,68.3
2019-06-20T07:24:03.491Z,68.5
2019-06-20T07:24:53.325Z,68.9
2019-06-20T07:25:43.582Z,69.1
2019-06-20T07:26:33.345Z,69.4
2019-06-20T07:27:23.963Z,69.8
2019-06-20T07:28:14.032Z,70.1
2019-06-20T07:29:03.803Z,70.4
2019-06-20T07:29:53.592Z,70.6
2019-06-20T07:30:44.324Z,70.9
2019-06-20T07:32:24.057Z,71.6
2019-06-20T07:33:14.428Z,71.9
2019-06-20T07:34:04.504Z,72.2
2019-06-20T07:34:54.531Z,72.5
2019-06-20T07:35:44.747Z,72.8
2019-06-20T07:37:24.748Z,73.4
2019-06-20T07:38:14.513Z,73.7
2019-06-20T07:39:04.866Z,73.9
2019-06-20T07:39:54.957Z,74.2
2019-06-20T07:41:35.177Z,74.7
2019-06-20T07:42:25.063Z,74.9
2019-06-20T07:46:04.340Z,76
2019-06-20T07:47:24.856Z,76.6
2019-06-20T07:48:15.089Z,76.8
2019-06-20T08:17:37.627Z,84.4
2019-06-20T08:29:23.019Z,76.1
2019-06-20T08:35:04.987Z,76
2019-06-20T08:40:02.652Z,77.6
2019-06-20T08:45:01.764Z,78.1
2019-06-20T08:50:04.323Z,79.8
2019-06-20T08:53:20.475Z,80.4
2019-06-20T08:55:03.907Z,79.8
2019-06-20T08:55:50.426Z,79.9
2019-06-20T08:56:40.505Z,80.9
2019-06-20T08:57:30.582Z,80.6
2019-06-20T08:58:20.622Z,80.6
2019-06-20T08:59:26.227Z,80.5
2019-06-20T09:00:50.519Z,80.3
2019-06-20T09:01:40.579Z,80.9
2019-06-20T09:02:30.939Z,79.8
2019-06-20T09:03:21.013Z,80.5
2019-06-20T09:04:11.092Z,79.5
2019-06-20T09:05:51.159Z,80.1
2019-06-20T09:06:40.961Z,80.9
2019-06-20T09:07:31.039Z,80.5
2019-06-20T09:08:21.364Z,81.3
2019-06-20T09:09:10.913Z,80.6
2019-06-20T09:10:04.712Z,81.3
2019-06-20T09:10:51.319Z,81.6
2019-06-20T09:11:41.575Z,81.9
2019-06-20T09:12:31.659Z,81.8
2019-06-20T09:13:21.759Z,82.7
2019-06-20T09:14:11.774Z,82.1
2019-06-20T09:15:04.246Z,82.8
2019-06-20T09:15:54.795Z,82.1
2019-06-20T09:17:31.781Z,82.6
2019-06-20T09:18:21.794Z,82.5
2019-06-20T09:19:11.853Z,82.9
2019-06-20T09:20:04.006Z,82.1
2019-06-20T09:20:58.071Z,82.4
2019-06-20T09:22:32.110Z,81.6
2019-06-20T09:23:22.466Z,81.7
2019-06-20T09:24:12.338Z,80.9
2019-06-20T09:25:04.066Z,81.6
2019-06-20T09:25:53.878Z,81.4
2019-06-20T09:26:42.491Z,82
2019-06-20T09:27:32.769Z,81.7
2019-06-20T09:28:22.841Z,81.8
2019-06-20T09:29:12.886Z,81.9
2019-06-20T09:30:04.991Z,81.6
2019-06-20T09:32:32.886Z,82.4
2019-06-20T09:33:23.195Z,82.4
2019-06-20T09:34:13.244Z,82.1
2019-06-20T09:35:04.979Z,82.4
2019-06-20T09:37:33.745Z,82.9
2019-06-20T09:38:23.491Z,82.4
2019-06-20T09:56:56.828Z,77.9
2019-06-20T09:59:29.616Z,78.8
2019-06-20T10:05:02.510Z,81.4
2019-06-20T10:16:57.553Z,80.8
2019-06-20T10:30:16.494Z,83
2019-06-20T10:41:50.815Z,83.4
2019-06-20T11:12:57.443Z,83.9
2019-06-20T11:17:42.856Z,82.8
2019-06-20T11:22:45.355Z,82.9
2019-06-20T11:27:42.628Z,78.6
2019-06-20T11:31:02.628Z,72.8
2019-06-20T11:31:51.475Z,71.1
2019-06-20T11:32:42.010Z,69.8
2019-06-20T11:37:42.157Z,67.8
2019-06-20T11:42:41.954Z,70
2019-06-20T11:47:42.536Z,66.9
2019-06-20T11:52:47.311Z,62.1
2019-06-20T11:56:50.571Z,57.4
2019-06-20T12:01:05.754Z,52.6
2019-06-20T12:02:50.119Z,50.6
2019-06-20T12:05:02.365Z,48.1
2019-06-20T12:05:52.231Z,47
2019-06-20T12:06:47.112Z,46.1
2019-06-20T12:08:22.723Z,44.7
2019-06-20T12:09:12.479Z,43.9
2019-06-20T12:10:02.296Z,43.2
2019-06-20T12:10:52.325Z,42.4
2019-06-20T12:11:45.039Z,41.6
2019-06-20T12:13:22.503Z,40
2019-06-20T12:14:12.489Z,39.2
2019-06-20T12:15:02.911Z,38.4
2019-06-20T12:17:32.258Z,36.1
2019-06-20T12:18:23.112Z,35.4
2019-06-20T12:20:02.808Z,34.3
2019-06-20T12:20:53.129Z,33.8
2019-06-20T12:21:46.886Z,33.4
2019-06-20T12:23:23.859Z,32.6
2019-06-20T12:24:13.690Z,32.3
2019-06-20T12:26:48.447Z,31.3
2019-06-20T12:28:23.870Z,30.8
2019-06-20T12:29:14.189Z,30.5
2019-06-20T12:30:04.112Z,30.2
2019-06-20T12:30:53.788Z,29.9
2019-06-20T12:31:46.770Z,29.7
2019-06-20T12:32:50.165Z,29.4
2019-06-20T12:34:28.950Z,29
2019-06-20T12:35:54.437Z,28.5
2019-06-20T12:36:47.431Z,28.3
2019-06-20T12:38:39.731Z,27.9
2019-06-20T12:40:10.445Z,27.6
2019-06-20T12:41:00.272Z,27.4
2019-06-20T12:41:52.187Z,27.2
2019-06-20T12:42:47.341Z,27
2019-06-20T12:44:20.255Z,26.7
2019-06-20T12:45:11.005Z,26.6
2019-06-20T12:46:00.645Z,26.4
2019-06-20T12:46:51.083Z,26.3
2019-06-20T12:47:46.582Z,26.2
2019-06-20T12:48:30.294Z,26.1
2019-06-20T12:49:24.458Z,25.9
2019-06-20T12:50:11.374Z,25.9
2019-06-20T12:51:00.654Z,25.8
2019-06-20T12:51:51.303Z,25.6
2019-06-20T12:52:47.504Z,25.6
2019-06-20T12:54:21.244Z,25.3
2019-06-20T12:56:01.599Z,25.1
2019-06-20T12:56:51.415Z,24.9
2019-06-20T12:57:48.167Z,24.9
2019-06-20T12:59:38.018Z,24.6
2019-06-20T13:01:02.226Z,24.4
2019-06-20T13:02:49.713Z,24.2
2019-06-20T13:22:50.292Z,22.2
2019-06-20T13:26:07.091Z,22
2019-06-20T13:27:51.221Z,21.9
2019-06-20T13:29:05.751Z,21.9
2019-06-20T13:32:50.294Z,21.8
2019-06-20T13:33:42.198Z,21.8
2019-06-20T13:36:22.723Z,21.7
2019-06-20T13:37:51.920Z,21.7
2019-06-20T13:38:44.453Z,21.7
2019-06-20T13:42:53.804Z,21.5
2019-06-20T13:47:51.608Z,21.4
2019-06-20T13:48:45.761Z,21.4
2019-06-20T13:52:52.725Z,21.4
2019-06-20T13:53:53.735Z,21.4
2019-06-20T13:58:44.714Z,21.5
2019-06-20T14:02:08.805Z,21.6
2019-06-20T14:06:01.845Z,21.7
2019-06-20T14:06:52.204Z,21.8
2019-06-20T14:07:56.727Z,21.8
2019-06-20T14:09:22.086Z,21.9
2019-06-20T14:10:12.151Z,21.9
2019-06-20T14:11:02.247Z,21.9
2019-06-20T14:11:54.822Z,22
2019-06-20T14:14:22.480Z,22.3
2019-06-20T14:15:12.517Z,22.3
2019-06-20T14:16:02.558Z,22.4
2019-06-20T14:16:52.059Z,22.4
2019-06-20T14:17:47.498Z,22.6
2019-06-20T14:19:23.074Z,22.8
2019-06-20T14:20:12.999Z,22.9
2019-06-20T14:21:03.544Z,23
2019-06-20T14:21:54.794Z,23.1
2019-06-20T14:24:23.423Z,23.6
2019-06-20T14:25:12.931Z,23.7
2019-06-20T14:26:03.600Z,23.9
2019-06-20T14:26:55.130Z,24
2019-06-20T14:29:23.794Z,24.5
2019-06-20T14:30:13.586Z,24.7
2019-06-20T14:31:03.644Z,24.9
2019-06-20T14:31:54.361Z,25
2019-06-20T14:32:44.938Z,25.3
2019-06-20T14:34:23.885Z,25.6
2019-06-20T14:35:13.936Z,25.9
2019-06-20T14:36:04.144Z,26.1
2019-06-20T14:36:55.386Z,26.4
2019-06-20T14:37:52.396Z,26.6
2019-06-20T14:39:24.522Z,27.1
2019-06-20T14:40:14.568Z,27.4
2019-06-20T14:41:04.208Z,27.6
2019-06-20T14:42:52.171Z,28.1
2019-06-20T14:44:24.605Z,28.6
2019-06-20T14:45:14.937Z,28.8
2019-06-20T14:46:04.988Z,29.1
2019-06-20T14:51:57.001Z,30.9
2019-06-20T14:52:54.110Z,31.2
2019-06-20T14:57:54.418Z,32.8
2019-06-20T14:59:26.041Z,33.3
2019-06-20T15:02:59.361Z,34.1
2019-06-20T15:07:56.097Z,35.3
2019-06-20T15:12:55.841Z,36.4
2019-06-20T15:17:58.503Z,37.5
2019-06-20T15:22:56.581Z,38.5
2019-06-20T15:27:57.715Z,39.1
2019-06-20T15:33:11.429Z,39.1
2019-06-20T15:37:57.646Z,39.2
2019-06-20T15:38:53.307Z,39.3
2019-06-20T15:42:58.846Z,39.4
2019-06-20T15:52:00.593Z,39.1
2019-06-20T15:56:10.215Z,38.9
2019-06-20T15:58:40.291Z,38.8
2019-06-20T15:59:30.377Z,38.8
2019-06-20T16:00:20.503Z,38.8
2019-06-20T16:01:10.473Z,38.7
2019-06-20T16:02:00.567Z,38.6
2019-06-20T16:02:50.815Z,38.5
2019-06-20T16:03:40.675Z,38.4
2019-06-20T16:06:02.125Z,37.9
2019-06-20T16:06:52.290Z,37.8
2019-06-20T16:07:42.205Z,37.6
2019-06-20T16:08:31.983Z,37.4
2019-06-20T16:09:22.390Z,37.1
2019-06-20T16:10:12.386Z,36.9
2019-06-20T16:11:02.472Z,36.8
2019-06-20T16:11:52.292Z,36.6
2019-06-20T16:12:42.552Z,36.4
2019-06-20T16:13:32.628Z,36.3
2019-06-20T16:14:22.687Z,36.1
2019-06-20T16:15:12.824Z,35.9
2019-06-20T16:16:02.927Z,35.8
2019-06-20T16:16:53.009Z,35.6
2019-06-20T16:17:42.668Z,35.6
2019-06-20T16:18:33.005Z,35.4
2019-06-20T16:19:23.059Z,35.4
2019-06-20T16:20:13.111Z,35.3
2019-06-20T16:21:02.983Z,35.1
2019-06-20T16:21:53.314Z,35
2019-06-20T16:22:43.344Z,34.9
2019-06-20T16:23:33.343Z,34.8
2019-06-20T16:24:23.572Z,34.6
2019-06-20T16:25:12.927Z,34.5
2019-06-20T16:26:03.587Z,34.4
2019-06-20T16:26:53.349Z,34.3
2019-06-20T16:27:43.169Z,34.1
2019-06-20T16:28:33.749Z,33.9
2019-06-20T16:29:23.784Z,33.8
2019-06-20T16:30:13.621Z,33.7
2019-06-20T16:31:28.431Z,33.6
2019-06-20T16:32:43.811Z,33.4
2019-06-20T16:33:34.098Z,33.3
2019-06-20T16:34:23.843Z,33.2
2019-06-20T16:35:14.131Z,33.1
2019-06-20T16:36:04.268Z,33
2019-06-20T16:37:10.599Z,32.9
2019-06-20T16:38:34.146Z,32.7
2019-06-20T16:39:24.221Z,32.6
2019-06-20T16:40:14.301Z,32.4
2019-06-20T16:41:04.620Z,32.3
2019-06-20T16:41:54.403Z,32.2
2019-06-20T16:42:44.183Z,32.1
2019-06-20T16:43:34.773Z,31.9
2019-06-20T16:44:24.590Z,31.8
2019-06-20T16:45:14.925Z,31.6
2019-06-20T16:46:04.697Z,31.4
2019-06-20T16:46:55.017Z,31.3
2019-06-20T16:47:44.870Z,31.1
2019-06-20T16:50:15.282Z,30.6
2019-06-20T16:51:05.045Z,30.6
2019-06-20T16:51:55.529Z,30.4
2019-06-20T16:54:25.592Z,30.1
2019-06-20T17:03:43.879Z,28.9
2019-06-20T17:36:20.130Z,25.3
2019-06-20T17:47:48.642Z,24.3
2019-06-20T17:59:30.323Z,23.3
2019-06-20T18:00:20.302Z,23.3
2019-06-20T18:01:10.352Z,23.2
2019-06-20T18:02:00.237Z,23.1
2019-06-20T18:02:50.497Z,23.1
2019-06-20T18:03:40.574Z,23
2019-06-20T18:06:16.692Z,22.8
2019-06-20T18:07:41.658Z,22.6
2019-06-20T18:08:31.990Z,22.6
2019-06-20T18:09:22.337Z,22.6
2019-06-20T18:10:12.374Z,22.5
2019-06-20T18:11:02.112Z,22.4
2019-06-20T18:11:52.201Z,22.4
2019-06-20T18:12:42.524Z,22.3
2019-06-20T18:13:32.654Z,22.3
2019-06-20T18:14:22.129Z,22.3
2019-06-20T18:15:12.774Z,22.2
2019-06-20T18:16:02.775Z,22.1
2019-06-20T18:16:52.801Z,22.1
2019-06-20T18:17:42.879Z,22
2019-06-20T18:18:32.662Z,21.9
2019-06-20T18:19:22.971Z,21.9
2019-06-20T18:20:12.847Z,21.8
2019-06-20T18:21:03.102Z,21.8
2019-06-20T18:21:53.181Z,21.7
